Time;durP1;ratioP1;P1;durP2;ratioP2;P2;SDS_P1;SDS_P2;PMS_P1;PMS_P2;Temp;Humidity;BMP_temperature;BMP_pressure;BME280_temperature;BME280_humidity;BME280_pressure;Samples;Min_cycle;Max_cycle;Signal;HPM_P1;HPM_P2
2024/01/30 00:01:12;;;;;;;;;;;17.20;60.90;;;;;;5021765;28;1188;-68
2024/01/30 00:03:37;;;;;;;;;;;17.20;60.90;;;;;;5021545;28;1238;-68
2024/01/30 00:06:03;;;;;;;;;;;17.20;61.00;;;;;;5018243;28;1906;-66
2024/01/30 00:08:28;;;;;;;;;;;17.20;61.00;;;;;;5017717;28;1453;-68
2024/01/30 00:10:54;;;;;;;;;;;17.20;61.00;;;;;;5018996;28;1544;-69
2024/01/30 00:13:19;;;;;;;;;;;17.20;61.00;;;;;;5016982;28;1594;-69
2024/01/30 00:15:45;;;;;;;;;;;17.20;61.00;;;;;;5018387;28;1626;-68
2024/01/30 00:18:11;;;;;;;;;;;17.20;61.00;;;;;;5020217;28;1997;-69
2024/01/30 00:20:36;;;;;;;;;;;17.20;61.00;;;;;;5019384;28;1429;-69
2024/01/30 00:23:01;;;;;;;;;;;17.20;61.00;;;;;;5020644;28;1455;-69
2024/01/30 00:25:27;;;;;;;;;;;17.20;61.00;;;;;;5018402;28;1461;-70
2024/01/30 00:27:52;;;;;;;;;;;17.20;61.00;;;;;;5019229;28;2378;-70
2024/01/30 00:30:18;;;;;;;;;;;17.20;61.00;;;;;;5017131;28;1437;-69
2024/01/30 00:32:43;;;;;;;;;;;17.20;61.10;;;;;;5017980;28;1599;-69
2024/01/30 00:35:10;;;;;;;;;;;17.20;61.00;;;;;;5019110;28;1763;-70
2024/01/30 00:37:35;;;;;;;;;;;17.20;61.10;;;;;;5019067;28;1533;-70
2024/01/30 00:40:01;;;;;;;;;;;17.20;61.10;;;;;;5020387;28;1463;-69
2024/01/30 00:42:26;;;;;;;;;;;17.20;61.10;;;;;;5018952;28;1597;-69
2024/01/30 00:44:52;;;;;;;;;;;17.20;61.10;;;;;;5015441;28;1525;-68
2024/01/30 00:47:17;;;;;;;;;;;17.20;61.10;;;;;;5017130;28;1898;-70
2024/01/30 00:49:43;;;;;;;;;;;17.20;61.10;;;;;;5020372;28;1680;-69
2024/01/30 00:52:08;;;;;;;;;;;17.20;61.10;;;;;;5015820;28;1712;-68
2024/01/30 00:54:34;;;;;;;;;;;17.20;61.20;;;;;;5018909;28;1342;-68
2024/01/30 00:56:59;;;;;;;;;;;17.20;61.10;;;;;;5019617;28;1278;-68
2024/01/30 00:59:25;;;;;;;;;;;17.20;61.10;;;;;;5017704;28;1439;-69
2024/01/30 01:01:50;;;;;;;;;;;17.20;61.20;;;;;;5017449;28;1562;-68
2024/01/30 01:04:17;;;;;;;;;;;17.20;61.10;;;;;;5022327;28;1344;-69
2024/01/30 01:06:43;;;;;;;;;;;17.20;61.20;;;;;;5021777;28;1934;-67
2024/01/30 01:09:10;;;;;;;;;;;17.20;61.20;;;;;;5022707;28;1526;-68
2024/01/30 01:11:37;;;;;;;;;;;17.20;61.20;;;;;;5023704;28;1547;-68
2024/01/30 01:14:03;;;;;;;;;;;17.20;61.20;;;;;;5023713;28;1304;-68
2024/01/30 01:16:28;;;;;;;;;;;17.10;61.10;;;;;;5025412;28;1521;-69
2024/01/30 01:18:54;;;;;;;;;;;17.20;61.20;;;;;;5025208;28;1668;-69
2024/01/30 01:21:19;;;;;;;;;;;17.10;61.20;;;;;;5021669;28;1459;-68
2024/01/30 01:23:45;;;;;;;;;;;17.20;61.20;;;;;;5022191;28;1537;-67
2024/01/30 01:26:10;;;;;;;;;;;17.20;61.20;;;;;;5023705;28;1902;-68
2024/01/30 01:28:36;;;;;;;;;;;17.20;61.20;;;;;;5053289;28;1459;-68
2024/01/30 01:31:05;;;;;;;;;;;17.10;61.20;;;;;;5029306;28;1542;-68
2024/01/30 01:33:33;;;;;;;;;;;17.20;61.30;;;;;;5023790;28;1285;-69
2024/01/30 01:35:59;;;;;;;;;;;17.10;61.20;;;;;;5020767;28;1431;-68
2024/01/30 01:38:24;;;;;;;;;;;17.20;61.20;;;;;;5020380;28;1547;-68
2024/01/30 01:40:51;;;;;;;;;;;17.20;61.20;;;;;;5023080;28;1558;-68
2024/01/30 01:43:16;;;;;;;;;;;17.20;61.30;;;;;;5021845;28;1331;-67
2024/01/30 01:45:42;;;;;;;;;;;17.20;61.30;;;;;;5023794;28;1132;-67
2024/01/30 01:48:08;;;;;;;;;;;17.20;61.30;;;;;;5021821;28;1964;-67
2024/01/30 01:50:33;;;;;;;;;;;17.20;61.30;;;;;;5020793;28;1446;-68
2024/01/30 01:52:59;;;;;;;;;;;17.20;61.30;;;;;;5021753;28;1443;-67
2024/01/30 01:55:27;;;;;;;;;;;17.10;61.20;;;;;;5019403;28;1619;-67
2024/01/30 01:57:52;;;;;;;;;;;17.10;61.20;;;;;;5022620;28;1559;-69
2024/01/30 02:00:19;;;;;;;;;;;17.20;61.30;;;;;;5021709;28;1677;-69
2024/01/30 02:02:45;;;;;;;;;;;17.10;61.20;;;;;;5024979;28;1086;-69
2024/01/30 02:05:10;;;;;;;;;;;17.10;61.20;;;;;;5017954;28;1737;-69
2024/01/30 02:07:36;;;;;;;;;;;17.10;61.30;;;;;;5022594;28;1918;-69
2024/01/30 02:10:03;;;;;;;;;;;17.10;62.00;;;;;;5021056;28;1675;-69
2024/01/30 02:12:29;;;;;;;;;;;17.10;61.20;;;;;;5020036;28;1440;-69
2024/01/30 02:14:55;;;;;;;;;;;17.10;61.30;;;;;;5019005;28;1506;-69
2024/01/30 02:17:20;;;;;;;;;;;17.10;61.30;;;;;;5020052;28;1470;-68
2024/01/30 02:19:46;;;;;;;;;;;17.10;61.30;;;;;;5019287;28;1660;-69
2024/01/30 02:22:11;;;;;;;;;;;17.10;61.30;;;;;;5020077;28;1479;-69
2024/01/30 02:24:37;;;;;;;;;;;17.10;61.30;;;;;;5027975;28;1454;-69
2024/01/30 02:27:02;;;;;;;;;;;17.10;61.40;;;;;;5021789;28;1898;-70
2024/01/30 02:29:28;;;;;;;;;;;17.10;61.30;;;;;;5021080;28;1311;-70
2024/01/30 02:31:53;;;;;;;;;;;17.10;61.30;;;;;;5021133;28;1399;-70
2024/01/30 02:34:19;;;;;;;;;;;17.10;61.30;;;;;;5022099;28;1431;-68
2024/01/30 02:36:44;;;;;;;;;;;17.10;61.30;;;;;;5019603;28;1654;-69
2024/01/30 02:39:10;;;;;;;;;;;17.10;61.30;;;;;;5017633;28;1479;-68
2024/01/30 02:41:35;;;;;;;;;;;17.10;61.30;;;;;;5017620;28;1464;-69
2024/01/30 02:44:01;;;;;;;;;;;17.10;61.30;;;;;;5020402;28;1466;-68
2024/01/30 02:46:27;;;;;;;;;;;17.10;61.40;;;;;;5021600;28;1955;-69
2024/01/30 02:48:52;;;;;;;;;;;17.10;61.30;;;;;;5023530;28;1408;-69
2024/01/30 02:51:18;;;;;;;;;;;17.10;61.30;;;;;;5023497;28;1431;-68
2024/01/30 02:53:44;;;;;;;;;;;17.10;61.30;;;;;;5019435;28;1542;-68
2024/01/30 02:56:10;;;;;;;;;;;17.10;61.40;;;;;;5019640;28;1577;-68
2024/01/30 02:58:36;;;;;;;;;;;17.10;61.40;;;;;;5019227;28;1323;-68
2024/01/30 03:01:02;;;;;;;;;;;17.10;61.40;;;;;;5018728;28;1396;-69
2024/01/30 03:03:27;;;;;;;;;;;17.10;61.40;;;;;;5017970;28;1420;-68
2024/01/30 03:05:53;;;;;;;;;;;17.10;61.40;;;;;;5020711;28;1537;-68
2024/01/30 03:08:18;;;;;;;;;;;17.10;61.40;;;;;;5018728;28;1973;-68
2024/01/30 03:10:44;;;;;;;;;;;17.10;61.40;;;;;;5020362;28;1417;-68
2024/01/30 03:13:09;;;;;;;;;;;17.10;61.40;;;;;;5018315;28;1696;-68
2024/01/30 03:15:35;;;;;;;;;;;17.10;61.40;;;;;;5019567;28;1658;-67
2024/01/30 03:18:00;;;;;;;;;;;17.10;61.40;;;;;;5020413;28;1500;-68
2024/01/30 03:20:25;;;;;;;;;;;17.10;61.40;;;;;;5019576;28;1423;-67
2024/01/30 03:22:51;;;;;;;;;;;17.10;61.40;;;;;;5023736;28;1439;-66
2024/01/30 03:25:16;;;;;;;;;;;17.10;61.40;;;;;;5022765;28;1423;-66
2024/01/30 03:27:42;;;;;;;;;;;17.10;61.40;;;;;;5021716;28;1984;-65
2024/01/30 03:30:07;;;;;;;;;;;17.10;61.40;;;;;;5023320;28;1270;-67
2024/01/30 03:32:33;;;;;;;;;;;17.10;61.40;;;;;;5023514;28;1267;-66
2024/01/30 03:34:59;;;;;;;;;;;17.10;61.40;;;;;;5022136;28;1601;-68
2024/01/30 03:37:24;;;;;;;;;;;17.10;61.40;;;;;;5020999;28;1426;-67
2024/01/30 03:39:50;;;;;;;;;;;17.10;61.40;;;;;;5018099;28;1516;-67
2024/01/30 03:42:15;;;;;;;;;;;17.10;61.40;;;;;;5019716;28;1835;-66
2024/01/30 03:44:41;;;;;;;;;;;17.10;61.40;;;;;;5018925;28;1544;-68
2024/01/30 03:47:06;;;;;;;;;;;17.10;61.40;;;;;;5022189;28;1926;-67
2024/01/30 03:49:32;;;;;;;;;;;17.10;61.40;;;;;;5017477;28;1517;-68
2024/01/30 03:51:57;;;;;;;;;;;17.10;61.40;;;;;;5019714;28;1331;-68
2024/01/30 03:54:22;;;;;;;;;;;17.10;61.40;;;;;;5017390;28;1399;-67
2024/01/30 03:56:48;;;;;;;;;;;17.10;61.40;;;;;;5019236;28;1323;-68
2024/01/30 03:59:13;;;;;;;;;;;17.10;61.40;;;;;;5020129;28;1673;-67
2024/01/30 04:01:39;;;;;;;;;;;17.10;61.40;;;;;;5018226;28;1464;-67
2024/01/30 04:04:04;;;;;;;;;;;17.10;61.50;;;;;;5026367;28;1018;-67
2024/01/30 04:06:30;;;;;;;;;;;17.10;61.40;;;;;;5020249;28;1981;-67
2024/01/30 04:08:55;;;;;;;;;;;17.10;61.50;;;;;;5017781;28;1620;-68
2024/01/30 04:11:21;;;;;;;;;;;17.10;61.50;;;;;;5017622;28;1470;-68
2024/01/30 04:13:48;;;;;;;;;;;17.10;61.50;;;;;;5019066;28;1512;-67
2024/01/30 04:16:22;;;;;;;;;;;17.10;61.50;;;;;;5018705;28;1382;-67
2024/01/30 04:18:48;;;;;;;;;;;17.10;61.60;;;;;;5016293;28;1093;-68
2024/01/30 04:21:13;;;;;;;;;;;17.10;61.50;;;;;;5015632;28;1462;-66
2024/01/30 04:23:39;;;;;;;;;;;17.10;61.50;;;;;;5017314;28;911;-67
2024/01/30 04:26:05;;;;;;;;;;;17.00;61.40;;;;;;5019181;28;1898;-68
2024/01/30 04:28:30;;;;;;;;;;;17.10;61.50;;;;;;5018906;28;1365;-68
2024/01/30 04:30:56;;;;;;;;;;;17.10;61.50;;;;;;5018762;28;910;-67
2024/01/30 04:33:21;;;;;;;;;;;17.10;61.50;;;;;;5017410;28;1142;-67
2024/01/30 04:35:47;;;;;;;;;;;17.00;61.40;;;;;;5019661;28;1655;-67
2024/01/30 04:38:13;;;;;;;;;;;17.10;61.50;;;;;;5021425;28;1376;-68
2024/01/30 04:40:39;;;;;;;;;;;17.10;61.50;;;;;;5019520;28;1340;-68
2024/01/30 04:43:04;;;;;;;;;;;17.10;61.50;;;;;;5019210;28;1430;-68
2024/01/30 04:45:30;;;;;;;;;;;17.10;61.50;;;;;;5016066;28;1517;-68
2024/01/30 04:47:55;;;;;;;;;;;17.00;61.40;;;;;;5020475;28;1950;-68
2024/01/30 04:50:21;;;;;;;;;;;17.10;61.90;;;;;;5022237;28;1353;-68
2024/01/30 04:52:46;;;;;;;;;;;17.10;61.50;;;;;;5020985;28;1540;-68
2024/01/30 04:55:11;;;;;;;;;;;17.10;61.50;;;;;;5018359;28;927;-68
2024/01/30 04:57:37;;;;;;;;;;;17.10;61.50;;;;;;5016355;28;1272;-68
2024/01/30 05:00:03;;;;;;;;;;;17.10;62.30;;;;;;5017816;28;1429;-68
2024/01/30 05:02:28;;;;;;;;;;;17.10;61.50;;;;;;5018189;28;1454;-68
2024/01/30 05:04:54;;;;;;;;;;;17.10;61.60;;;;;;5020004;28;1387;-68
2024/01/30 05:07:20;;;;;;;;;;;17.10;61.50;;;;;;5017837;28;1969;-68
2024/01/30 05:09:45;;;;;;;;;;;17.10;61.60;;;;;;5019798;28;1447;-68
2024/01/30 05:12:11;;;;;;;;;;;17.10;61.50;;;;;;5019090;28;1646;-69
2024/01/30 05:14:36;;;;;;;;;;;17.10;61.50;;;;;;5016932;28;1265;-69
2024/01/30 05:17:03;;;;;;;;;;;17.10;61.40;;;;;;5018738;28;1443;-68
2024/01/30 05:19:28;;;;;;;;;;;17.10;61.30;;;;;;5016371;28;1394;-68
2024/01/30 05:21:54;;;;;;;;;;;17.10;61.20;;;;;;5017787;28;1547;-68
2024/01/30 05:24:19;;;;;;;;;;;17.20;61.20;;;;;;5017212;28;1280;-68
2024/01/30 05:26:45;;;;;;;;;;;17.20;61.10;;;;;;5015317;28;2017;-68
2024/01/30 05:29:10;;;;;;;;;;;17.20;61.00;;;;;;5019836;28;1528;-68
2024/01/30 05:31:35;;;;;;;;;;;17.30;60.90;;;;;;5019639;28;1263;-68
2024/01/30 05:34:01;;;;;;;;;;;17.30;60.80;;;;;;5015375;28;1338;-68
2024/01/30 05:36:27;;;;;;;;;;;17.30;60.70;;;;;;5018406;28;1485;-68
2024/01/30 05:38:52;;;;;;;;;;;17.30;60.60;;;;;;5014720;28;1480;-68
2024/01/30 05:41:18;;;;;;;;;;;17.30;60.60;;;;;;5020578;28;1951;-69
2024/01/30 05:43:43;;;;;;;;;;;17.40;60.50;;;;;;5016664;28;1096;-68
2024/01/30 05:46:09;;;;;;;;;;;17.40;60.50;;;;;;5019800;28;1957;-68
2024/01/30 05:48:35;;;;;;;;;;;17.40;60.50;;;;;;5022598;28;1401;-68
2024/01/30 05:51:01;;;;;;;;;;;17.40;60.40;;;;;;5025401;28;1429;-68
2024/01/30 05:53:26;;;;;;;;;;;17.40;60.40;;;;;;5020765;28;1454;-67
2024/01/30 05:55:52;;;;;;;;;;;17.40;60.40;;;;;;5019800;28;1692;-68
2024/01/30 05:58:17;;;;;;;;;;;17.40;60.30;;;;;;5024127;28;1775;-68
2024/01/30 06:00:43;;;;;;;;;;;17.40;60.30;;;;;;5019816;28;1475;-68
2024/01/30 06:03:08;;;;;;;;;;;17.40;60.30;;;;;;5021831;28;1450;-68
2024/01/30 06:05:34;;;;;;;;;;;17.40;60.20;;;;;;5018409;28;1493;-68
2024/01/30 06:07:59;;;;;;;;;;;17.40;60.20;;;;;;5020545;28;1918;-68
2024/01/30 06:10:24;;;;;;;;;;;17.50;60.20;;;;;;5017342;28;1479;-68
2024/01/30 06:12:53;;;;;;;;;;;17.50;60.20;;;;;;5027226;28;1465;-67
2024/01/30 06:15:18;;;;;;;;;;;17.50;60.10;;;;;;5018434;28;1882;-68
2024/01/30 06:17:44;;;;;;;;;;;17.50;60.10;;;;;;5019597;28;1281;-68
2024/01/30 06:20:10;;;;;;;;;;;17.50;60.00;;;;;;5018041;28;1386;-68
2024/01/30 06:22:35;;;;;;;;;;;17.50;60.00;;;;;;5018173;28;1343;-67
2024/01/30 06:25:01;;;;;;;;;;;17.50;60.00;;;;;;5018741;28;1328;-68
2024/01/30 06:27:27;;;;;;;;;;;17.50;59.90;;;;;;5019274;28;1968;-68
2024/01/30 06:29:52;;;;;;;;;;;17.50;59.90;;;;;;5023071;28;1518;-66
2024/01/30 06:32:17;;;;;;;;;;;17.50;59.90;;;;;;5029603;28;798;-70
2024/01/30 06:34:44;;;;;;;;;;;17.50;59.90;;;;;;5035093;28;809;-66
2024/01/30 06:37:09;;;;;;;;;;;17.60;59.90;;;;;;5028244;28;1307;-66
2024/01/30 06:39:35;;;;;;;;;;;17.60;59.90;;;;;;5023911;28;1195;-69
2024/01/30 06:42:00;;;;;;;;;;;17.60;59.90;;;;;;5025213;28;841;-66
2024/01/30 06:44:26;;;;;;;;;;;17.60;59.90;;;;;;5025477;28;935;-66
2024/01/30 06:46:51;;;;;;;;;;;17.60;59.90;;;;;;5029328;28;1906;-67
2024/01/30 06:49:17;;;;;;;;;;;17.60;59.90;;;;;;5024927;28;884;-66
2024/01/30 06:51:42;;;;;;;;;;;17.60;59.90;;;;;;5024089;28;947;-70
2024/01/30 06:54:08;;;;;;;;;;;17.50;59.80;;;;;;5015497;28;4070;-68
2024/01/30 06:56:34;;;;;;;;;;;17.60;59.90;;;;;;5025276;28;1288;-66
2024/01/30 06:58:59;;;;;;;;;;;17.50;60.60;;;;;;5030742;28;980;-65
2024/01/30 07:01:29;;;;;;;;;;;17.60;59.90;;;;;;5028569;28;875;-67
2024/01/30 07:03:54;;;;;;;;;;;17.50;59.90;;;;;;5019274;28;1151;-66
2024/01/30 07:06:20;;;;;;;;;;;17.50;59.90;;;;;;5021846;28;1983;-66
2024/01/30 07:08:45;;;;;;;;;;;17.50;59.90;;;;;;5030981;28;867;-67
2024/01/30 07:11:12;;;;;;;;;;;17.50;59.90;;;;;;5021218;28;1356;-69
2024/01/30 07:13:37;;;;;;;;;;;17.50;59.90;;;;;;5018438;28;1313;-67
2024/01/30 07:16:03;;;;;;;;;;;17.50;59.90;;;;;;5019942;28;1425;-68
2024/01/30 07:18:28;;;;;;;;;;;17.50;60.00;;;;;;5020841;28;1209;-68
2024/01/30 07:20:54;;;;;;;;;;;17.50;60.00;;;;;;5021415;28;1492;-68
2024/01/30 07:23:19;;;;;;;;;;;17.50;60.00;;;;;;5017877;28;1795;-68
2024/01/30 07:25:45;;;;;;;;;;;17.50;60.00;;;;;;5021772;28;1552;-68
2024/01/30 07:28:11;;;;;;;;;;;17.40;60.00;;;;;;5018641;28;1906;-67
2024/01/30 07:30:37;;;;;;;;;;;17.50;60.10;;;;;;5019763;28;1459;-67
2024/01/30 07:33:02;;;;;;;;;;;17.50;60.10;;;;;;5021165;28;1417;-69
2024/01/30 07:35:28;;;;;;;;;;;17.50;60.10;;;;;;5020943;28;1478;-67
2024/01/30 07:37:53;;;;;;;;;;;17.50;60.10;;;;;;5022667;28;1683;-69
2024/01/30 07:40:19;;;;;;;;;;;17.50;60.20;;;;;;5025215;28;1362;-68
2024/01/30 07:42:44;;;;;;;;;;;17.50;60.20;;;;;;5019786;28;1527;-67
2024/01/30 07:45:10;;;;;;;;;;;17.40;60.20;;;;;;5024074;28;1612;-68
2024/01/30 07:47:35;;;;;;;;;;;17.40;60.20;;;;;;5008360;28;1923;-67
2024/01/30 07:50:01;;;;;;;;;;;17.50;60.30;;;;;;5018013;28;1343;-67
2024/01/30 07:52:26;;;;;;;;;;;17.40;60.20;;;;;;5002786;28;1491;-68
2024/01/30 07:54:52;;;;;;;;;;;17.40;60.20;;;;;;5027863;28;1538;-68
2024/01/30 07:57:18;;;;;;;;;;;17.40;60.30;;;;;;5018694;28;1434;-68
2024/01/30 07:59:46;;;;;;;;;;;17.40;60.30;;;;;;5020005;28;1532;-67
2024/01/30 08:02:12;;;;;;;;;;;17.40;60.30;;;;;;5021987;28;1269;-68
2024/01/30 08:04:38;;;;;;;;;;;17.40;60.30;;;;;;5015796;28;1446;-68
2024/01/30 08:07:03;;;;;;;;;;;17.40;60.30;;;;;;5017627;28;1902;-68
2024/01/30 08:09:28;;;;;;;;;;;17.40;60.30;;;;;;5016579;28;1141;-68
2024/01/30 08:11:54;;;;;;;;;;;17.40;60.40;;;;;;5018221;28;1320;-68
2024/01/30 08:14:19;;;;;;;;;;;17.40;60.40;;;;;;5019217;28;1375;-68
2024/01/30 08:16:45;;;;;;;;;;;17.40;60.40;;;;;;5018185;28;1531;-68
2024/01/30 08:19:10;;;;;;;;;;;17.40;60.40;;;;;;5019107;28;1548;-67
2024/01/30 08:21:36;;;;;;;;;;;17.40;60.40;;;;;;5018286;28;1434;-68
2024/01/30 08:24:05;;;;;;;;;;;17.40;60.50;;;;;;5021097;28;1459;-68
2024/01/30 08:26:33;;;;;;;;;;;17.40;60.40;;;;;;5019459;28;1902;-68
2024/01/30 08:28:59;;;;;;;;;;;17.40;60.40;;;;;;5017819;28;1551;-67
2024/01/30 08:31:24;;;;;;;;;;;17.40;60.50;;;;;;5005571;28;1652;-68
2024/01/30 08:33:50;;;;;;;;;;;17.40;60.50;;;;;;5019158;28;938;-68
2024/01/30 08:36:16;;;;;;;;;;;17.40;60.50;;;;;;5019730;28;1530;-68
2024/01/30 08:38:41;;;;;;;;;;;17.40;60.60;;;;;;5020936;28;1552;-68
2024/01/30 08:41:07;;;;;;;;;;;17.40;60.50;;;;;;5019730;28;1354;-68
2024/01/30 08:43:32;;;;;;;;;;;17.40;60.50;;;;;;5021095;28;1475;-68
2024/01/30 08:46:01;;;;;;;;;;;17.40;60.50;;;;;;5009418;28;1560;-68
2024/01/30 08:48:26;;;;;;;;;;;17.40;60.50;;;;;;5026780;28;1906;-68
2024/01/30 08:50:52;;;;;;;;;;;17.40;60.60;;;;;;5019910;28;1555;-67
2024/01/30 08:53:18;;;;;;;;;;;17.40;60.50;;;;;;5018417;28;1680;-68
2024/01/30 08:55:43;;;;;;;;;;;17.40;60.50;;;;;;5015247;28;1371;-69
2024/01/30 08:58:09;;;;;;;;;;;17.40;60.50;;;;;;5016827;28;1762;-67
2024/01/30 09:00:34;;;;;;;;;;;17.40;60.50;;;;;;5016784;28;1441;-67
2024/01/30 09:03:00;;;;;;;;;;;17.40;60.40;;;;;;5018531;28;1445;-67
2024/01/30 09:05:25;;;;;;;;;;;17.40;60.40;;;;;;5020619;28;1870;-68
2024/01/30 09:07:51;;;;;;;;;;;17.40;60.30;;;;;;5018660;28;1987;-68
2024/01/30 09:10:16;;;;;;;;;;;17.40;60.40;;;;;;5018354;28;1404;-68
2024/01/30 09:12:42;;;;;;;;;;;17.40;60.30;;;;;;5020301;28;1663;-68
2024/01/30 09:15:08;;;;;;;;;;;17.40;60.30;;;;;;5018343;28;1510;-68
2024/01/30 09:17:33;;;;;;;;;;;17.40;60.20;;;;;;5017746;28;1490;-68
2024/01/30 09:19:59;;;;;;;;;;;17.40;60.20;;;;;;5016973;28;1501;-68
2024/01/30 09:22:24;;;;;;;;;;;17.50;60.30;;;;;;5017762;28;1247;-68
2024/01/30 09:24:50;;;;;;;;;;;17.50;60.20;;;;;;5023770;28;1508;-68
2024/01/30 09:27:15;;;;;;;;;;;17.50;60.20;;;;;;5022369;28;1969;-68
2024/01/30 09:29:40;;;;;;;;;;;17.50;60.20;;;;;;5021396;28;1453;-67
2024/01/30 09:32:06;;;;;;;;;;;17.50;60.10;;;;;;5022269;28;1459;-67
2024/01/30 09:34:32;;;;;;;;;;;17.50;60.10;;;;;;5021212;28;1494;-67
2024/01/30 09:36:58;;;;;;;;;;;17.50;60.10;;;;;;5045129;28;1531;-66
2024/01/30 09:39:23;;;;;;;;;;;17.50;60.10;;;;;;5022411;28;1604;-67
2024/01/30 09:41:49;;;;;;;;;;;17.50;60.10;;;;;;5026325;28;1544;-68
2024/01/30 09:44:18;;;;;;;;;;;17.50;60.10;;;;;;5028457;28;1480;-67
2024/01/30 09:46:44;;;;;;;;;;;17.50;60.10;;;;;;5005955;28;1942;-67
2024/01/30 09:49:10;;;;;;;;;;;17.50;60.00;;;;;;5019074;28;1452;-67
2024/01/30 09:51:35;;;;;;;;;;;17.50;60.10;;;;;;5023143;28;1575;-68
2024/01/30 09:54:02;;;;;;;;;;;17.50;60.00;;;;;;5004375;28;1454;-69
2024/01/30 09:56:28;;;;;;;;;;;17.50;60.00;;;;;;5019348;28;1571;-69
2024/01/30 09:58:54;;;;;;;;;;;17.50;60.00;;;;;;5022093;28;1470;-69
2024/01/30 10:01:19;;;;;;;;;;;17.50;60.00;;;;;;5020455;28;1466;-67
2024/01/30 10:03:45;;;;;;;;;;;17.50;60.00;;;;;;5011613;28;1544;-68
2024/01/30 10:06:11;;;;;;;;;;;17.50;60.00;;;;;;5020344;28;1665;-68
2024/01/30 10:08:37;;;;;;;;;;;17.50;60.00;;;;;;5022180;28;1934;-67
2024/01/30 10:11:03;;;;;;;;;;;17.50;59.90;;;;;;5020440;28;1428;-68
2024/01/30 10:13:29;;;;;;;;;;;17.50;59.90;;;;;;5017679;28;1354;-67
2024/01/30 10:15:55;;;;;;;;;;;17.50;59.90;;;;;;5019300;28;1658;-68
2024/01/30 10:18:22;;;;;;;;;;;17.60;60.00;;;;;;5020346;28;1454;-67
2024/01/30 10:20:47;;;;;;;;;;;17.60;60.00;;;;;;5021582;28;1315;-69
2024/01/30 10:23:13;;;;;;;;;;;17.60;60.00;;;;;;5020531;28;1356;-67
2024/01/30 10:25:38;;;;;;;;;;;17.60;59.90;;;;;;5021096;28;1330;-67
2024/01/30 10:28:04;;;;;;;;;;;17.60;59.90;;;;;;5022525;28;1902;-68
2024/01/30 10:30:29;;;;;;;;;;;17.60;59.90;;;;;;5022767;28;1301;-68
2024/01/30 10:32:55;;;;;;;;;;;17.60;59.90;;;;;;5021491;28;1218;-68
2024/01/30 10:35:20;;;;;;;;;;;17.60;59.90;;;;;;5022363;28;1570;-68
2024/01/30 10:37:47;;;;;;;;;;;17.60;59.90;;;;;;5021622;28;1726;-68
2024/01/30 10:40:12;;;;;;;;;;;17.60;59.90;;;;;;5021983;28;1444;-68
2024/01/30 10:42:38;;;;;;;;;;;17.60;59.90;;;;;;5021331;28;1314;-68
2024/01/30 10:45:08;;;;;;;;;;;17.60;59.90;;;;;;5021739;28;1589;-68
2024/01/30 10:47:34;;;;;;;;;;;17.60;59.90;;;;;;5020294;28;1906;-68
2024/01/30 10:49:59;;;;;;;;;;;17.60;59.80;;;;;;5020548;28;1302;-68
2024/01/30 10:52:29;;;;;;;;;;;17.60;59.80;;;;;;5023559;28;1746;-68
2024/01/30 10:54:54;;;;;;;;;;;17.60;59.80;;;;;;5027081;28;1467;-68
2024/01/30 10:57:20;;;;;;;;;;;17.60;59.80;;;;;;5019301;28;1371;-68
2024/01/30 10:59:45;;;;;;;;;;;17.60;59.80;;;;;;5019149;28;1430;-68
2024/01/30 11:02:11;;;;;;;;;;;17.60;59.80;;;;;;5018184;28;1556;-67
2024/01/30 11:04:45;;;;;;;;;;;17.60;59.80;;;;;;5020242;28;1529;-68
2024/01/30 11:07:17;;;;;;;;;;;17.60;59.80;;;;;;5004284;28;1910;-67
2024/01/30 11:09:50;;;;;;;;;;;17.60;59.90;;;;;;5011381;28;1329;-68
2024/01/30 11:12:16;;;;;;;;;;;17.60;59.80;;;;;;5023632;28;1096;-68
2024/01/30 11:14:43;;;;;;;;;;;17.60;59.80;;;;;;5018961;28;1606;-68
2024/01/30 11:17:09;;;;;;;;;;;17.60;59.90;;;;;;5019433;28;1297;-68
2024/01/30 11:19:35;;;;;;;;;;;17.60;59.90;;;;;;5020238;28;1101;-69
2024/01/30 11:22:00;;;;;;;;;;;17.60;59.80;;;;;;5019322;28;1458;-69
2024/01/30 11:24:26;;;;;;;;;;;17.60;59.90;;;;;;5020136;28;1583;-69
2024/01/30 11:27:01;;;;;;;;;;;17.60;59.90;;;;;;5018917;28;1910;-68
2024/01/30 11:29:27;;;;;;;;;;;17.60;59.90;;;;;;5020652;28;1811;-69
2024/01/30 11:31:53;;;;;;;;;;;17.60;59.90;;;;;;5002524;28;1436;-69
2024/01/30 11:34:19;;;;;;;;;;;17.60;59.90;;;;;;5019606;28;1544;-69
2024/01/30 11:36:46;;;;;;;;;;;17.60;59.90;;;;;;5006583;28;1498;-69
2024/01/30 11:39:12;;;;;;;;;;;17.60;59.90;;;;;;5003743;28;1470;-68
2024/01/30 11:41:37;;;;;;;;;;;17.60;60.00;;;;;;5020930;28;1166;-68
2024/01/30 11:44:03;;;;;;;;;;;17.60;60.00;;;;;;5019026;28;1460;-69
2024/01/30 11:46:29;;;;;;;;;;;17.60;60.00;;;;;;5017637;28;1906;-68
2024/01/30 11:48:54;;;;;;;;;;;17.50;59.90;;;;;;5016291;28;1633;-68
2024/01/30 11:51:20;;;;;;;;;;;17.50;60.00;;;;;;5016182;28;1514;-67
2024/01/30 11:53:49;;;;;;;;;;;17.50;60.00;;;;;;5002435;28;1484;-68
2024/01/30 11:56:14;;;;;;;;;;;17.50;60.00;;;;;;5017421;28;1602;-68
2024/01/30 11:58:42;;;;;;;;;;;17.50;60.00;;;;;;5019371;28;1289;-68
2024/01/30 12:01:07;;;;;;;;;;;17.50;60.00;;;;;;5019914;28;1446;-68
2024/01/30 12:03:33;;;;;;;;;;;17.50;60.00;;;;;;5019516;28;1331;-68
2024/01/30 12:05:58;;;;;;;;;;;17.50;60.00;;;;;;5018925;28;1222;-68
2024/01/30 12:08:24;;;;;;;;;;;17.60;60.00;;;;;;5018063;28;1946;-68
2024/01/30 12:10:57;;;;;;;;;;;17.60;59.90;;;;;;5017121;28;1478;-69
2024/01/30 12:13:22;;;;;;;;;;;17.60;59.90;;;;;;5019699;28;1541;-69
2024/01/30 12:15:48;;;;;;;;;;;17.60;59.80;;;;;;5016630;28;1461;-68
2024/01/30 12:18:13;;;;;;;;;;;17.60;59.80;;;;;;5020188;28;1354;-68
2024/01/30 12:20:39;;;;;;;;;;;17.70;59.80;;;;;;5016301;28;1542;-68
2024/01/30 12:23:04;;;;;;;;;;;17.70;59.70;;;;;;5020216;28;1503;-69
2024/01/30 12:25:30;;;;;;;;;;;17.70;59.70;;;;;;5007159;28;1491;-68
2024/01/30 12:27:55;;;;;;;;;;;17.70;59.60;;;;;;5001396;28;1895;-68
2024/01/30 12:30:21;;;;;;;;;;;17.70;59.60;;;;;;5016175;28;1699;-69
2024/01/30 12:32:47;;;;;;;;;;;17.70;59.60;;;;;;5018383;28;1169;-68
2024/01/30 12:35:13;;;;;;;;;;;17.70;59.60;;;;;;5019706;28;1517;-68
2024/01/30 12:37:39;;;;;;;;;;;17.70;59.60;;;;;;5021411;28;1560;-68
2024/01/30 12:40:06;;;;;;;;;;;17.70;59.50;;;;;;5000783;28;1460;-68
2024/01/30 12:42:31;;;;;;;;;;;17.70;59.50;;;;;;5019096;28;1583;-68
2024/01/30 12:44:57;;;;;;;;;;;17.70;59.50;;;;;;5017558;28;1399;-68
2024/01/30 12:47:22;;;;;;;;;;;17.70;59.50;;;;;;5022255;28;1963;-68
2024/01/30 12:49:48;;;;;;;;;;;17.70;59.50;;;;;;5019820;28;1385;-68
2024/01/30 12:52:14;;;;;;;;;;;17.80;59.60;;;;;;5049751;28;1339;-68
2024/01/30 12:54:39;;;;;;;;;;;17.70;59.50;;;;;;5018647;28;897;-67
2024/01/30 12:57:05;;;;;;;;;;;17.70;59.50;;;;;;5020238;28;1511;-68
2024/01/30 12:59:30;;;;;;;;;;;17.70;59.50;;;;;;5022318;28;1396;-68
2024/01/30 13:01:56;;;;;;;;;;;17.80;59.50;;;;;;5022003;28;1534;-68
2024/01/30 13:04:22;;;;;;;;;;;17.80;59.50;;;;;;5024935;28;1273;-68
2024/01/30 13:06:47;;;;;;;;;;;17.70;59.50;;;;;;5023600;28;1902;-68
2024/01/30 13:09:13;;;;;;;;;;;17.80;59.50;;;;;;5022023;28;1407;-68
2024/01/30 13:11:38;;;;;;;;;;;17.80;59.50;;;;;;5021713;28;1539;-68
2024/01/30 13:14:04;;;;;;;;;;;17.80;59.50;;;;;;5023170;28;1459;-68
2024/01/30 13:16:29;;;;;;;;;;;17.80;59.50;;;;;;5029517;28;1761;-68
2024/01/30 13:18:55;;;;;;;;;;;17.70;59.40;;;;;;5023203;28;1490;-68
2024/01/30 13:21:21;;;;;;;;;;;17.80;59.50;;;;;;5019723;28;1958;-68
2024/01/30 13:23:46;;;;;;;;;;;17.70;59.40;;;;;;5021605;28;1210;-68
2024/01/30 13:26:12;;;;;;;;;;;17.80;59.50;;;;;;5022424;28;1451;-68
2024/01/30 13:28:37;;;;;;;;;;;17.80;59.50;;;;;;5021884;28;1996;-68
2024/01/30 13:31:03;;;;;;;;;;;17.80;59.50;;;;;;5023337;28;1535;-68
2024/01/30 13:33:28;;;;;;;;;;;17.80;59.50;;;;;;5021690;28;1614;-68
2024/01/30 13:35:54;;;;;;;;;;;17.80;59.50;;;;;;5023412;28;1632;-68
2024/01/30 13:38:19;;;;;;;;;;;17.80;59.50;;;;;;5022116;28;1563;-68
2024/01/30 13:40:45;;;;;;;;;;;17.80;59.50;;;;;;5021051;28;1219;-68
2024/01/30 13:43:10;;;;;;;;;;;17.80;59.50;;;;;;5054171;28;1519;-68
2024/01/30 13:45:36;;;;;;;;;;;17.70;59.40;;;;;;5012574;28;1500;-68
2024/01/30 13:48:03;;;;;;;;;;;17.70;59.40;;;;;;5020885;28;1983;-68
2024/01/30 13:50:28;;;;;;;;;;;17.70;59.40;;;;;;5022650;28;1749;-69
2024/01/30 13:52:54;;;;;;;;;;;17.80;59.50;;;;;;5023200;28;1691;-68
2024/01/30 13:55:19;;;;;;;;;;;17.80;59.50;;;;;;5023925;28;1332;-68
2024/01/30 13:57:45;;;;;;;;;;;17.80;59.50;;;;;;5023379;28;1371;-68
2024/01/30 14:00:11;;;;;;;;;;;17.70;59.50;;;;;;5022103;28;1387;-69
2024/01/30 14:02:36;;;;;;;;;;;17.70;59.50;;;;;;5022037;28;1494;-68
2024/01/30 14:05:04;;;;;;;;;;;17.70;59.60;;;;;;5021537;28;1452;-68
2024/01/30 14:07:29;;;;;;;;;;;17.70;59.60;;;;;;5023104;28;1918;-69
2024/01/30 14:09:55;;;;;;;;;;;17.70;59.60;;;;;;5002478;28;1669;-69
2024/01/30 14:12:21;;;;;;;;;;;17.70;59.60;;;;;;5023109;28;895;-68
2024/01/30 14:14:46;;;;;;;;;;;17.70;59.60;;;;;;5006884;28;1297;-68
2024/01/30 14:17:11;;;;;;;;;;;17.70;59.70;;;;;;5020651;28;1304;-69
2024/01/30 14:19:37;;;;;;;;;;;17.70;59.60;;;;;;5021244;28;1434;-68
2024/01/30 14:22:03;;;;;;;;;;;17.70;59.70;;;;;;5021480;28;1515;-69